Astrid Conroy — ZGAQ5 — position and weather

sailwx.info

Track history (hours):
 
Tides and Currents Weather Stations Pressure Air Temp Water Temp Dewpoint Dewpoint Depression Visibility Wind Speed Wind Dir Waves Ship Positions

Astrid Conroy

Last reported at 2018-Apr-18 06:30 UTC. Time now 2018-Apr-22 05:01 UTC.
Position N 43°35' E 007°08'.

Length 58 m; draft 3.5 m.

Type: Pleasure craft. MMSI: 319031500.

Date/timePositionNaut miles runAvg speedWind from/ knotsBaromVisibWave heightAir tempDewpointWater temp
2018-Apr-18 06:30N 43°35' E 007°08'2 4.5
2018-Apr-18 05:59N 43°34' E 007°10'713.8
2018-Apr-18 05:30N 43°28' E 007°05'815.1
2018-Apr-18 05:00N 43°22' E 006°59'45612.9
2018-Apr-16 17:36N 38°00' W 000°07'112.7
2018-Apr-16 17:30N 37°59' W 000°08'1912.9
2018-Apr-16 16:02N 37°44' W 000°22'013.1
2018-Apr-16 16:00N 37°43' W 000°22'713.2
2018-Apr-16 15:30N 37°38' W 000°26'612.8
2018-Apr-16 15:00N 37°33' W 000°31'813.5
2018-Apr-16 14:26N 37°28' W 000°38'613.3
2018-Apr-16 14:00N 37°24' W 000°44'22011.8
2018-Apr-15 19:24N 36°07' W 005°01'612.6
2018-Apr-15 18:56N 36°06' W 005°08'510.9
2018-Apr-15 18:28N 36°06' W 005°14'  
Track history (hours):
 
Tides and Currents Weather Stations Pressure Air Temp Water Temp Dewpoint Dewpoint Depression Visibility Wind Speed Wind Dir Waves Ship Positions

Astrid Conroy

Last reported at 2018-Apr-18 06:30 UTC. Time now 2018-Apr-22 05:01 UTC.
Position N 43°35' E 007°08'.

Length 58 m; draft 3.5 m.

Type: Pleasure craft. MMSI: 319031500.

Date/timePositionNaut miles runAvg speedWind from/ knotsBaromVisibWave heightAir tempDewpointWater temp
2018-Apr-18 06:30N 43°35' E 007°08'2 4.5
2018-Apr-18 05:59N 43°34' E 007°10'713.8
2018-Apr-18 05:30N 43°28' E 007°05'815.1
2018-Apr-18 05:00N 43°22' E 006°59'45612.9
2018-Apr-16 17:36N 38°00' W 000°07'112.7
2018-Apr-16 17:30N 37°59' W 000°08'1912.9
2018-Apr-16 16:02N 37°44' W 000°22'013.1
2018-Apr-16 16:00N 37°43' W 000°22'713.2
2018-Apr-16 15:30N 37°38' W 000°26'612.8
2018-Apr-16 15:00N 37°33' W 000°31'813.5
2018-Apr-16 14:26N 37°28' W 000°38'613.3
2018-Apr-16 14:00N 37°24' W 000°44'22011.8
2018-Apr-15 19:24N 36°07' W 005°01'612.6
2018-Apr-15 18:56N 36°06' W 005°08'510.9
2018-Apr-15 18:28N 36°06' W 005°14'  

Dump ship's entire track history